Forside
METAR-TAF:

METAR-TAF

Lufthavne :

Monticello Regional Airport

Monticello, Iowa, USA

Breddekreds: 42-14N, længdekreds: 091-10W, højde: 259 m

Aktuelle vejr

Denne rapport blev lavet for 16 minutter siden, kl. 01:55 UTC
Vind 3 kt fra østnordøst
Temperatur 23°C
Fugtighed 89%
Tryk 1011 hPa
Sigt: 16.1 km
skyfri

METAR: KMXO 250155Z AUTO 06003KT 10SM CLR 23/21 A2985 RMK AO2

Tid: 21:11 (02:11 UTC)


TAF: fraværende

Vejrobservationer og prognoser fra mere end 4000 lufthavne (METAR og TAF).

De gule og røde prikker repræsenterer de meteorologiske stationer.

Flyt musen over at se navnet på stationen.

Så klik over at se vejr observationer og prognoser.

At skifte det kort: Klik på de grønne knapper med et sort kors for at zoome ind; på den grønne knap med en bindestreg for at zoome ud; eller på de grønne pile for tilstødende kort.


METAR-TAF: